createdAt,value
2019-03-25T00:01:46.319Z,83.73
2019-03-25T00:04:20.442Z,74.22
2019-03-25T00:06:51.264Z,81.20
2019-03-25T00:09:23.012Z,76.07
2019-03-25T00:11:53.633Z,90.33
2019-03-25T00:14:24.307Z,71.85
2019-03-25T00:16:54.866Z,62.57
2019-03-25T00:19:25.600Z,60.90
2019-03-25T00:21:57.481Z,43.97
2019-03-25T00:24:38.322Z,63.93
2019-03-25T00:27:00.488Z,64.03
2019-03-25T00:29:31.169Z,59.03
2019-03-25T00:32:01.796Z,64.47
2019-03-25T00:34:32.367Z,54.17
2019-03-25T00:37:03.181Z,46.60
2019-03-25T00:39:36.654Z,48.15
2019-03-25T00:42:07.354Z,50.65
2019-03-25T00:44:38.083Z,45.67
2019-03-25T00:47:08.654Z,45.65
2019-03-25T00:49:39.367Z,55.98
2019-03-25T00:52:09.986Z,51.00
2019-03-25T00:54:49.612Z,43.93
2019-03-25T00:57:12.834Z,46.83
2019-03-25T00:59:43.421Z,44.93
2019-03-25T01:02:14.025Z,50.53
2019-03-25T01:04:44.881Z,50.20
2019-03-25T01:07:15.657Z,50.78
2019-03-25T01:09:46.941Z,51.53
2019-03-25T01:12:17.509Z,40.83
2019-03-25T01:14:49.480Z,39.97
2019-03-25T01:17:20.080Z,40.20
2019-03-25T01:19:50.704Z,44.93
2019-03-25T01:22:21.247Z,53.47
2019-03-25T01:25:07.527Z,45.20
2019-03-25T01:27:38.319Z,55.48
2019-03-25T01:30:09.550Z,47.63
2019-03-25T01:32:40.327Z,49.48
2019-03-25T01:35:10.988Z,40.93
2019-03-25T01:37:41.635Z,39.83
2019-03-25T01:40:13.026Z,43.00
2019-03-25T01:42:43.684Z,44.63
2019-03-25T01:45:14.694Z,33.63
2019-03-25T01:47:45.402Z,37.28
2019-03-25T01:50:16.147Z,41.45
2019-03-25T01:52:46.879Z,44.57
2019-03-25T01:55:17.608Z,40.87
2019-03-25T01:57:48.152Z,36.00
2019-03-25T02:00:20.380Z,39.40
2019-03-25T02:02:51.175Z,42.17
2019-03-25T02:05:21.745Z,38.90
2019-03-25T02:07:52.676Z,37.88
2019-03-25T02:10:23.161Z,32.80
2019-03-25T02:12:54.069Z,41.08
2019-03-25T02:15:24.695Z,41.80
2019-03-25T02:18:07.527Z,30.77
2019-03-25T02:20:38.050Z,38.13
2019-03-25T02:23:08.939Z,36.83
2019-03-25T02:25:39.795Z,36.20
2019-03-25T02:28:11.496Z,30.43
2019-03-25T02:30:42.033Z,44.48
2019-03-25T02:33:12.709Z,28.07
2019-03-25T02:35:44.252Z,32.17
2019-03-25T02:38:14.882Z,30.53
2019-03-25T02:40:45.547Z,39.60
2019-03-25T02:43:16.088Z,35.07
2019-03-25T02:45:46.652Z,40.20
2019-03-25T02:48:17.171Z,39.70
2019-03-25T02:50:47.911Z,33.45
2019-03-25T02:53:18.401Z,41.20
2019-03-25T02:55:49.203Z,32.43
2019-03-25T02:58:19.963Z,34.97
2019-03-25T03:00:50.583Z,35.43
2019-03-25T03:03:24.029Z,35.20
2019-03-25T03:05:54.707Z,48.77
2019-03-25T03:08:25.461Z,36.93
2019-03-25T03:10:57.023Z,38.60
2019-03-25T03:13:27.582Z,37.30
2019-03-25T03:15:58.207Z,32.67
2019-03-25T03:18:28.804Z,32.93
2019-03-25T03:20:59.364Z,34.93
2019-03-25T03:23:29.954Z,36.73
2019-03-25T03:26:00.798Z,40.00
2019-03-25T03:28:32.957Z,43.03
2019-03-25T03:31:03.654Z,34.92
2019-03-25T03:33:34.267Z,37.50
2019-03-25T03:36:05.119Z,39.30
2019-03-25T03:38:35.700Z,37.60
2019-03-25T03:41:06.663Z,34.03
2019-03-25T03:43:38.352Z,30.60
2019-03-25T03:46:09.140Z,33.10
2019-03-25T03:48:39.798Z,42.73
2019-03-25T03:51:11.558Z,37.20
2019-03-25T03:53:43.552Z,31.70
2019-03-25T03:56:14.691Z,42.55
2019-03-25T03:58:47.488Z,30.03
2019-03-25T04:01:18.327Z,37.70
2019-03-25T04:03:48.950Z,34.37
2019-03-25T04:06:20.820Z,36.50
2019-03-25T04:08:51.421Z,30.63
2019-03-25T04:11:24.473Z,38.53
2019-03-25T04:13:55.214Z,30.30
2019-03-25T04:16:25.913Z,37.03
2019-03-25T04:18:56.506Z,34.57
2019-03-25T04:21:27.129Z,42.20
2019-03-25T04:23:57.676Z,37.50
2019-03-25T04:26:29.565Z,35.47
2019-03-25T04:29:00.481Z,48.20
2019-03-25T04:31:31.088Z,40.03
2019-03-25T04:34:01.696Z,34.77
2019-03-25T04:36:32.309Z,47.88
2019-03-25T04:42:50.655Z,37.13
2019-03-25T04:45:08.720Z,40.23
2019-03-25T04:47:39.352Z,42.53
2019-03-25T04:50:09.980Z,41.73
2019-03-25T04:52:40.568Z,47.97
2019-03-25T04:55:11.491Z,39.97
2019-03-25T04:57:42.006Z,41.77
2019-03-25T05:00:14.600Z,44.60
2019-03-25T05:02:45.275Z,42.77
2019-03-25T05:05:15.907Z,39.10
2019-03-25T05:07:46.434Z,32.90
2019-03-25T05:10:17.128Z,41.60
2019-03-25T05:12:47.844Z,35.35
2019-03-25T05:15:19.659Z,42.90
2019-03-25T05:17:50.298Z,37.65
2019-03-25T05:20:21.148Z,44.08
2019-03-25T05:22:53.545Z,30.40
2019-03-25T05:25:24.182Z,43.50
2019-03-25T05:27:55.014Z,42.73
2019-03-25T05:30:26.814Z,28.43
2019-03-25T05:32:57.468Z,40.87
2019-03-25T05:35:28.194Z,46.53
2019-03-25T05:37:58.940Z,58.80
2019-03-25T05:40:30.727Z,48.33
2019-03-25T05:43:01.224Z,37.93
2019-03-25T05:45:32.970Z,45.55
2019-03-25T05:48:03.614Z,34.73
2019-03-25T05:50:34.128Z,46.53
2019-03-25T05:53:04.729Z,46.20
2019-03-25T05:55:35.269Z,38.42
2019-03-25T05:58:06.065Z,50.30
2019-03-25T06:00:38.182Z,45.47
2019-03-25T06:03:08.942Z,38.45
2019-03-25T06:05:40.626Z,32.90
2019-03-25T06:08:11.193Z,35.70
2019-03-25T06:10:41.948Z,43.98
2019-03-25T06:13:12.976Z,32.93
2019-03-25T06:15:43.610Z,27.05
2019-03-25T06:18:26.053Z,30.10
2019-03-25T06:20:56.568Z,28.30
2019-03-25T06:23:27.258Z,29.67
2019-03-25T06:25:57.770Z,38.53
2019-03-25T06:28:29.654Z,28.95
2019-03-25T06:31:00.734Z,35.30
2019-03-25T06:33:31.248Z,38.50
2019-03-25T06:36:01.853Z,46.57
2019-03-25T06:38:32.375Z,32.33
2019-03-25T06:41:03.005Z,32.53
2019-03-25T06:43:33.565Z,34.50
2019-03-25T06:46:04.250Z,30.45
2019-03-25T06:48:35.081Z,25.27
2019-03-25T06:51:05.729Z,28.35
2019-03-25T06:53:36.297Z,28.27
2019-03-25T06:56:06.966Z,50.28
2019-03-25T06:58:37.595Z,30.72
2019-03-25T07:01:08.430Z,27.70
2019-03-25T07:03:40.201Z,33.10
2019-03-25T07:06:10.745Z,35.50
2019-03-25T07:08:41.331Z,20.72
2019-03-25T07:11:12.419Z,23.30
2019-03-25T07:13:43.775Z,25.12
2019-03-25T07:16:14.558Z,43.08
2019-03-25T07:18:45.229Z,29.00
2019-03-25T07:21:15.957Z,29.05
2019-03-25T07:23:46.712Z,33.78
2019-03-25T07:26:17.440Z,26.95
2019-03-25T07:28:48.092Z,22.10
2019-03-25T07:31:18.727Z,25.37
2019-03-25T07:33:49.689Z,23.20
2019-03-25T07:36:20.257Z,17.85
2019-03-25T07:38:51.072Z,20.37
2019-03-25T07:41:21.791Z,19.90
2019-03-25T07:43:52.531Z,18.92
2019-03-25T07:46:26.659Z,18.10
2019-03-25T07:48:57.458Z,17.45
2019-03-25T07:51:28.077Z,15.50
2019-03-25T07:53:58.611Z,19.82
2019-03-25T07:56:29.290Z,22.85
2019-03-25T07:58:59.909Z,13.03
2019-03-25T08:01:32.262Z,24.00
2019-03-25T08:04:02.980Z,15.72
2019-03-25T08:06:33.879Z,11.90
2019-03-25T08:09:05.284Z,19.48
2019-03-25T08:11:36.110Z,14.43
2019-03-25T08:14:06.846Z,13.50
2019-03-25T08:16:37.691Z,18.70
2019-03-25T08:19:08.379Z,11.12
2019-03-25T08:21:39.075Z,13.55
2019-03-25T08:24:09.788Z,10.75
2019-03-25T08:26:42.712Z,9.90
2019-03-25T08:29:12.610Z,9.60
2019-03-25T08:31:43.479Z,13.38
2019-03-25T08:34:14.103Z,16.67
2019-03-25T08:36:44.851Z,14.68
2019-03-25T08:39:15.469Z,12.85
2019-03-25T08:41:46.050Z,20.35
2019-03-25T08:44:16.606Z,15.40
2019-03-25T08:46:47.311Z,12.15
2019-03-25T08:49:17.992Z,23.67
2019-03-25T08:51:48.690Z,13.98
2019-03-25T08:54:19.268Z,10.78
2019-03-25T08:56:49.941Z,10.70
2019-03-25T08:59:20.772Z,10.40
2019-03-25T09:01:51.605Z,15.08
2019-03-25T09:04:34.661Z,11.60
2019-03-25T09:07:07.761Z,14.00
2019-03-25T09:12:23.554Z,16.48
2019-03-25T09:14:54.363Z,13.60
2019-03-25T09:17:24.959Z,10.38
2019-03-25T09:19:55.552Z,16.95
2019-03-25T09:22:26.245Z,12.75
2019-03-25T09:24:56.949Z,10.05
2019-03-25T09:27:27.584Z,8.55
2019-03-25T09:29:58.286Z,12.07
2019-03-25T09:32:30.104Z,9.85
2019-03-25T09:35:00.689Z,11.30
2019-03-25T09:37:33.953Z,15.48
2019-03-25T09:40:06.502Z,12.65
2019-03-25T09:42:38.156Z,13.15
2019-03-25T09:45:09.531Z,9.98
2019-03-25T09:47:40.324Z,14.87
2019-03-25T09:50:13.088Z,10.08
2019-03-25T09:52:43.681Z,16.55
2019-03-25T09:55:16.689Z,13.65
2019-03-25T09:57:47.360Z,12.93
2019-03-25T10:00:19.687Z,21.30
2019-03-25T10:02:50.333Z,11.43
2019-03-25T10:05:21.484Z,14.63
2019-03-25T10:07:52.050Z,14.00
2019-03-25T10:10:22.783Z,10.32
2019-03-25T10:12:53.517Z,12.18
2019-03-25T10:15:24.306Z,17.70
2019-03-25T10:17:55.226Z,13.20
2019-03-25T10:20:25.892Z,12.85
2019-03-25T10:22:57.073Z,14.73
2019-03-25T10:25:27.784Z,13.55
2019-03-25T10:27:58.335Z,14.53
2019-03-25T10:30:29.463Z,10.63
2019-03-25T10:33:00.908Z,11.70
2019-03-25T10:35:33.297Z,15.98
2019-03-25T10:38:04.003Z,15.32
2019-03-25T10:40:34.740Z,16.62
2019-03-25T10:43:05.571Z,14.50
2019-03-25T10:45:37.447Z,5.00
2019-03-25T10:48:08.154Z,11.25
2019-03-25T10:50:39.004Z,11.75
2019-03-25T10:53:11.645Z,9.83
2019-03-25T10:55:48.588Z,8.13
2019-03-25T10:58:20.288Z,11.63
2019-03-25T11:00:51.023Z,13.98
2019-03-25T11:03:21.833Z,15.13
2019-03-25T11:05:52.981Z,11.43
2019-03-25T11:08:25.715Z,8.65
2019-03-25T11:10:56.324Z,12.82
2019-03-25T11:13:27.015Z,11.83
2019-03-25T11:15:57.860Z,11.25
2019-03-25T11:18:28.839Z,21.25
2019-03-25T11:20:59.623Z,21.42
2019-03-25T11:23:30.263Z,13.90
2019-03-25T11:26:01.127Z,10.75
2019-03-25T11:28:33.317Z,19.30
2019-03-25T11:31:04.124Z,14.45
2019-03-25T11:33:34.723Z,9.98
2019-03-25T11:36:05.990Z,10.38
2019-03-25T11:38:36.736Z,8.38
2019-03-25T11:41:07.547Z,12.47
2019-03-25T11:43:38.115Z,13.55
2019-03-25T11:46:08.872Z,38.42
2019-03-25T11:48:39.400Z,16.70
2019-03-25T11:51:10.171Z,10.65
2019-03-25T11:53:40.954Z,14.40
2019-03-25T11:56:11.698Z,14.98
2019-03-25T11:58:42.424Z,16.62
2019-03-25T12:01:13.502Z,21.50
2019-03-25T12:03:46.827Z,13.32
2019-03-25T12:06:17.857Z,9.60
2019-03-25T12:08:50.546Z,14.45
2019-03-25T12:11:23.605Z,12.98
2019-03-25T12:13:55.811Z,11.50
2019-03-25T12:16:26.720Z,9.93
2019-03-25T12:18:57.417Z,12.07
2019-03-25T12:21:29.916Z,12.03
2019-03-25T12:24:00.555Z,12.15
2019-03-25T12:26:31.329Z,10.63
2019-03-25T12:29:02.275Z,16.32
2019-03-25T12:31:33.641Z,7.95
2019-03-25T12:34:04.502Z,13.70
2019-03-25T12:36:35.124Z,14.03
2019-03-25T12:39:08.771Z,11.05
2019-03-25T12:41:39.416Z,13.78
2019-03-25T12:44:10.034Z,12.53
2019-03-25T12:46:40.642Z,11.45
2019-03-25T12:49:11.171Z,11.20
2019-03-25T12:51:42.230Z,8.95
2019-03-25T12:54:12.964Z,14.23
2019-03-25T12:56:45.074Z,16.52
2019-03-25T12:59:15.672Z,12.55
2019-03-25T13:01:52.804Z,12.33
2019-03-25T13:04:19.035Z,14.38
2019-03-25T13:06:52.296Z,10.58
2019-03-25T13:09:23.323Z,13.08
2019-03-25T13:11:54.197Z,8.65
2019-03-25T13:14:24.923Z,10.45
2019-03-25T13:16:55.620Z,14.18
2019-03-25T13:19:26.243Z,9.58
2019-03-25T13:21:56.763Z,8.80
2019-03-25T13:24:27.417Z,11.45
2019-03-25T13:26:57.954Z,9.75
2019-03-25T13:29:28.603Z,13.43
2019-03-25T13:31:59.152Z,10.32
2019-03-25T13:34:29.826Z,13.32
2019-03-25T13:37:00.572Z,14.03
2019-03-25T13:39:31.096Z,8.85
2019-03-25T13:42:01.752Z,10.98
2019-03-25T13:44:32.364Z,13.85
2019-03-25T13:47:02.868Z,21.07
2019-03-25T13:49:33.523Z,10.63
2019-03-25T13:52:04.013Z,15.15
2019-03-25T13:54:34.517Z,11.40
2019-03-25T13:57:05.269Z,23.15
2019-03-25T13:59:35.904Z,13.55
2019-03-25T14:02:06.552Z,11.78
2019-03-25T14:04:37.139Z,17.37
2019-03-25T14:07:07.855Z,10.55
2019-03-25T14:09:38.451Z,20.45
2019-03-25T14:12:09.272Z,17.70
2019-03-25T14:14:39.858Z,21.90
2019-03-25T14:17:22.865Z,18.32
2019-03-25T14:19:53.463Z,20.90
2019-03-25T14:22:24.040Z,14.50
2019-03-25T14:24:54.616Z,16.62
2019-03-25T14:27:25.440Z,17.50
2019-03-25T14:29:56.028Z,17.40
2019-03-25T14:32:26.770Z,11.75
2019-03-25T14:34:57.249Z,17.37
2019-03-25T14:37:27.833Z,16.52
2019-03-25T14:40:04.164Z,18.85
2019-03-25T14:42:34.779Z,17.57
2019-03-25T14:45:06.245Z,17.57
2019-03-25T14:47:36.944Z,15.05
2019-03-25T14:50:09.110Z,31.07
2019-03-25T14:52:39.645Z,24.67
2019-03-25T14:55:10.764Z,12.70
2019-03-25T14:57:41.545Z,16.07
2019-03-25T15:00:13.127Z,16.23
2019-03-25T15:02:43.873Z,13.85
2019-03-25T15:05:14.955Z,18.50
2019-03-25T15:07:45.382Z,13.70
2019-03-25T15:10:16.363Z,15.58
2019-03-25T15:12:47.078Z,12.07
2019-03-25T15:15:17.795Z,15.95
2019-03-25T15:17:48.481Z,15.18
2019-03-25T15:20:19.101Z,15.93
2019-03-25T15:22:49.766Z,12.63
2019-03-25T15:25:20.400Z,11.90
2019-03-25T15:27:51.011Z,22.93
2019-03-25T15:30:21.871Z,17.15
2019-03-25T15:32:52.481Z,16.75
2019-03-25T15:35:23.234Z,17.98
2019-03-25T15:37:53.859Z,19.12
2019-03-25T15:40:24.620Z,20.60
2019-03-25T15:42:55.219Z,23.67
2019-03-25T15:45:27.705Z,16.48
2019-03-25T15:47:58.542Z,17.55
2019-03-25T15:50:29.140Z,28.35
2019-03-25T15:53:00.220Z,20.57
2019-03-25T15:55:30.769Z,21.00
2019-03-25T15:58:01.379Z,23.75
2019-03-25T16:00:33.989Z,25.97
2019-03-25T16:03:04.863Z,22.62
2019-03-25T16:05:35.504Z,19.87
2019-03-25T16:08:07.091Z,22.85
2019-03-25T16:10:37.725Z,22.70
2019-03-25T16:13:08.427Z,19.37
2019-03-25T16:15:40.769Z,28.73
2019-03-25T16:18:18.603Z,19.82
2019-03-25T16:20:49.168Z,31.17
2019-03-25T16:23:19.833Z,23.12
2019-03-25T16:25:50.673Z,27.30
2019-03-25T16:28:21.338Z,21.33
2019-03-25T16:30:58.659Z,25.02
2019-03-25T16:33:41.013Z,22.77
2019-03-25T16:36:13.566Z,21.25
2019-03-25T16:38:44.110Z,22.17
2019-03-25T16:41:14.980Z,22.70
2019-03-25T16:43:50.960Z,27.60
2019-03-25T16:46:26.302Z,26.05
2019-03-25T16:48:57.165Z,31.90
2019-03-25T16:51:40.632Z,43.38
2019-03-25T16:54:16.721Z,28.90
2019-03-25T16:57:13.620Z,33.85
2019-03-25T17:00:04.236Z,25.95
2019-03-25T17:02:43.661Z,31.82
2019-03-25T17:05:32.529Z,23.45
2019-03-25T17:08:17.867Z,20.35
2019-03-25T17:10:59.230Z,26.35
2019-03-25T17:13:42.911Z,33.30
2019-03-25T17:16:26.020Z,49.18
2019-03-25T17:19:07.325Z,47.20
2019-03-25T17:21:57.550Z,54.83
2019-03-25T17:24:54.603Z,46.70
2019-03-25T17:27:55.651Z,29.67
2019-03-25T17:30:29.718Z,34.15
2019-03-25T17:33:04.456Z,24.95
2019-03-25T17:35:51.348Z,19.07
2019-03-25T17:38:23.764Z,9.43
2019-03-25T17:40:55.075Z,16.65
2019-03-25T17:43:48.387Z,15.58
2019-03-25T17:46:24.327Z,14.23
2019-03-25T17:48:57.454Z,12.85
2019-03-25T17:52:16.405Z,15.93
2019-03-25T17:54:55.987Z,11.90
2019-03-25T17:57:30.611Z,12.60
2019-03-25T18:00:03.865Z,16.87
2019-03-25T18:02:37.587Z,13.62
2019-03-25T18:05:09.894Z,14.75
2019-03-25T18:07:41.257Z,17.95
2019-03-25T18:10:13.085Z,16.75
2019-03-25T18:12:47.372Z,23.18
2019-03-25T18:15:32.621Z,28.85
2019-03-25T18:18:06.116Z,35.50
2019-03-25T18:20:36.738Z,34.63
2019-03-25T18:23:07.955Z,28.20
2019-03-25T18:25:39.480Z,32.00
2019-03-25T18:28:10.180Z,35.83
2019-03-25T18:30:40.915Z,38.57
2019-03-25T18:33:11.572Z,40.58
2019-03-25T18:35:42.209Z,32.17
2019-03-25T18:38:12.725Z,31.23
2019-03-25T18:40:45.293Z,33.28
2019-03-25T18:43:16.822Z,28.83
2019-03-25T18:45:47.560Z,23.65
2019-03-25T18:48:18.089Z,28.02
2019-03-25T18:50:48.812Z,22.67
2019-03-25T18:53:19.882Z,25.62
2019-03-25T18:55:51.629Z,30.85
2019-03-25T18:58:22.353Z,23.87
2019-03-25T19:00:53.102Z,23.25
2019-03-25T19:03:23.846Z,25.13
2019-03-25T19:05:54.527Z,28.32
2019-03-25T19:08:29.765Z,23.67
2019-03-25T19:11:14.906Z,28.85
2019-03-25T19:14:13.282Z,29.87
2019-03-25T19:17:26.369Z,23.53
2019-03-25T19:20:16.315Z,25.25
2019-03-25T19:22:48.073Z,22.07
2019-03-25T19:25:20.068Z,25.90
2019-03-25T19:27:50.850Z,16.50
2019-03-25T19:30:21.469Z,22.48
2019-03-25T19:32:52.043Z,28.60
2019-03-25T19:36:23.388Z,22.50
2019-03-25T19:40:24.876Z,39.18
2019-03-25T19:44:16.410Z,35.28
2019-03-25T19:47:53.856Z,30.47
2019-03-25T19:51:48.934Z,31.70
2019-03-25T19:58:46.221Z,40.90
2019-03-25T20:01:17.023Z,46.50
2019-03-25T20:03:49.160Z,43.43
2019-03-25T20:06:26.021Z,40.37
2019-03-25T20:08:52.294Z,41.57
2019-03-25T20:11:23.134Z,39.23
2019-03-25T20:13:53.963Z,44.97
2019-03-25T20:16:24.763Z,39.17
2019-03-25T20:18:55.611Z,47.47
2019-03-25T20:21:26.400Z,45.20
2019-03-25T20:23:57.137Z,36.67
2019-03-25T20:26:29.842Z,34.17
2019-03-25T20:29:00.554Z,40.57
2019-03-25T20:31:31.181Z,43.03
2019-03-25T20:34:11.029Z,36.43
2019-03-25T20:36:34.332Z,38.93
2019-03-25T20:39:07.675Z,42.67
2019-03-25T20:41:38.518Z,45.58
2019-03-25T20:44:10.853Z,38.03
2019-03-25T20:46:41.420Z,40.27
2019-03-25T20:49:12.155Z,43.07
2019-03-25T20:51:43.005Z,38.00
2019-03-25T20:54:13.703Z,35.70
2019-03-25T20:56:44.634Z,36.73
2019-03-25T20:59:15.685Z,36.73
2019-03-25T21:01:46.403Z,53.50
2019-03-25T21:04:17.317Z,45.70
2019-03-25T21:06:48.018Z,40.27
2019-03-25T21:09:18.916Z,42.20
2019-03-25T21:11:49.678Z,45.53
2019-03-25T21:14:20.392Z,38.23
2019-03-25T21:16:51.645Z,35.77
2019-03-25T21:19:24.017Z,44.60
2019-03-25T21:21:54.726Z,47.50
2019-03-25T21:24:25.395Z,57.13
2019-03-25T21:26:56.234Z,65.73
2019-03-25T21:29:26.866Z,61.43
2019-03-25T21:31:57.511Z,48.00
2019-03-25T21:34:28.286Z,52.57
2019-03-25T21:36:58.907Z,46.23
2019-03-25T21:39:29.718Z,62.53
2019-03-25T21:42:12.179Z,78.17
2019-03-25T21:44:42.863Z,77.00
2019-03-25T21:47:13.794Z,73.73
2019-03-25T21:49:44.472Z,82.93
2019-03-25T21:52:15.049Z,93.40
2019-03-25T21:54:45.770Z,96.00
2019-03-25T21:57:16.623Z,90.40
2019-03-25T21:59:47.394Z,93.13
2019-03-25T22:02:18.138Z,85.47
2019-03-25T22:04:49.827Z,91.63
2019-03-25T22:07:20.589Z,79.03
2019-03-25T22:09:51.304Z,77.33
2019-03-25T22:12:23.206Z,75.97
2019-03-25T22:14:53.780Z,73.90
2019-03-25T22:17:24.325Z,74.97
2019-03-25T22:19:55.031Z,78.37
2019-03-25T22:22:25.559Z,83.13
2019-03-25T22:24:56.137Z,76.17
2019-03-25T22:27:26.786Z,80.13
2019-03-25T22:29:57.520Z,71.17
2019-03-25T22:32:28.190Z,69.40
2019-03-25T22:34:58.823Z,66.10
2019-03-25T22:37:29.511Z,64.17
2019-03-25T22:40:00.342Z,44.33
2019-03-25T22:42:31.937Z,49.07
2019-03-25T22:45:02.463Z,51.60
2019-03-25T22:47:33.131Z,49.93
2019-03-25T22:50:04.174Z,46.10
2019-03-25T22:52:34.829Z,36.10
2019-03-25T22:55:06.966Z,42.53
2019-03-25T22:57:37.456Z,38.90
2019-03-25T23:00:08.770Z,42.57
2019-03-25T23:02:39.923Z,36.67
2019-03-25T23:05:11.076Z,37.23
2019-03-25T23:07:41.631Z,39.10
2019-03-25T23:10:12.337Z,35.13
2019-03-25T23:12:42.831Z,35.17
2019-03-25T23:15:13.610Z,37.60
2019-03-25T23:17:44.139Z,35.47
2019-03-25T23:20:14.826Z,39.10
2019-03-25T23:22:45.491Z,36.60
2019-03-25T23:25:16.036Z,37.60
2019-03-25T23:27:47.932Z,37.13
2019-03-25T23:30:18.626Z,35.63
2019-03-25T23:32:49.305Z,41.27
2019-03-25T23:35:19.952Z,32.53
2019-03-25T23:37:50.791Z,36.10
2019-03-25T23:40:21.964Z,31.23
2019-03-25T23:42:53.789Z,39.57
2019-03-25T23:45:24.566Z,32.23
2019-03-25T23:47:55.225Z,34.20
2019-03-25T23:50:26.001Z,35.90
2019-03-25T23:52:56.573Z,29.70
2019-03-25T23:55:27.205Z,34.80
2019-03-25T23:57:57.769Z,33.23
